sensor_id;sensor_type;location;lat;lon;timestamp;pressure;altitude;pressure_sealevel;temperature;humidity
33191;BME280;19554;42.652;23.364;2023-02-23T00:01:17;94477.66;;;9.93;47.69
33191;BME280;19554;42.652;23.364;2023-02-23T00:03:44;94479.00;;;9.91;47.69
33191;BME280;19554;42.652;23.364;2023-02-23T00:06:10;94476.84;;;9.93;47.81
33191;BME280;19554;42.652;23.364;2023-02-23T00:08:36;94464.75;;;9.82;48.08
33191;BME280;19554;42.652;23.364;2023-02-23T00:11:04;94479.22;;;9.94;47.75
33191;BME280;19554;42.652;23.364;2023-02-23T00:13:32;94461.00;;;9.83;47.71
33191;BME280;19554;42.652;23.364;2023-02-23T00:16:03;94444.59;;;9.70;47.28
33191;BME280;19554;42.652;23.364;2023-02-23T00:18:28;94488.53;;;9.97;47.16
33191;BME280;19554;42.652;23.364;2023-02-23T00:20:57;94492.28;;;9.96;48.00
33191;BME280;19554;42.652;23.364;2023-02-23T00:23:23;94497.44;;;9.63;49.11
33191;BME280;19554;42.652;23.364;2023-02-23T00:25:51;94496.50;;;9.54;49.13
33191;BME280;19554;42.652;23.364;2023-02-23T00:28:17;94497.75;;;9.62;49.13
33191;BME280;19554;42.652;23.364;2023-02-23T00:30:42;94493.78;;;9.59;49.09
33191;BME280;19554;42.652;23.364;2023-02-23T00:33:10;94495.88;;;9.62;49.05
33191;BME280;19554;42.652;23.364;2023-02-23T00:35:36;94498.09;;;9.55;49.29
33191;BME280;19554;42.652;23.364;2023-02-23T00:38:01;94502.63;;;9.55;49.08
33191;BME280;19554;42.652;23.364;2023-02-23T00:40:27;94492.31;;;9.48;48.91
33191;BME280;19554;42.652;23.364;2023-02-23T00:42:53;94489.13;;;9.46;49.10
33191;BME280;19554;42.652;23.364;2023-02-23T00:45:19;94493.31;;;9.52;49.10
33191;BME280;19554;42.652;23.364;2023-02-23T00:47:44;94494.34;;;9.56;49.04
33191;BME280;19554;42.652;23.364;2023-02-23T00:50:14;94495.66;;;9.59;49.03
33191;BME280;19554;42.652;23.364;2023-02-23T00:52:41;94497.75;;;9.62;49.05
33191;BME280;19554;42.652;23.364;2023-02-23T00:55:11;94484.91;;;9.64;48.91
33191;BME280;19554;42.652;23.364;2023-02-23T00:57:37;94488.91;;;9.66;48.69
33191;BME280;19554;42.652;23.364;2023-02-23T01:00:05;94487.31;;;9.65;48.77
33191;BME280;19554;42.652;23.364;2023-02-23T01:02:40;94486.88;;;9.58;48.90
33191;BME280;19554;42.652;23.364;2023-02-23T01:05:06;94490.84;;;9.61;48.88
33191;BME280;19554;42.652;23.364;2023-02-23T01:07:32;94490.03;;;9.60;48.78
33191;BME280;19554;42.652;23.364;2023-02-23T01:09:57;94490.63;;;9.57;48.89
33191;BME280;19554;42.652;23.364;2023-02-23T01:12:23;94496.75;;;9.58;48.91
33191;BME280;19554;42.652;23.364;2023-02-23T01:14:48;94489.56;;;9.53;48.85
33191;BME280;19554;42.652;23.364;2023-02-23T01:17:14;94482.66;;;9.52;49.11
33191;BME280;19554;42.652;23.364;2023-02-23T01:19:39;94485.84;;;9.54;49.06
33191;BME280;19554;42.652;23.364;2023-02-23T01:22:04;94493.00;;;9.59;49.03
33191;BME280;19554;42.652;23.364;2023-02-23T01:24:30;94467.25;;;9.49;48.95
33191;BME280;19554;42.652;23.364;2023-02-23T01:26:55;94436.06;;;9.25;48.91
33191;BME280;19554;42.652;23.364;2023-02-23T01:29:21;94483.63;;;9.61;48.84
33191;BME280;19554;42.652;23.364;2023-02-23T01:31:47;94472.00;;;9.52;48.69
33191;BME280;19554;42.652;23.364;2023-02-23T01:34:15;94481.53;;;9.58;48.79
33191;BME280;19554;42.652;23.364;2023-02-23T01:36:42;94483.75;;;9.51;48.95
33191;BME280;19554;42.652;23.364;2023-02-23T01:39:11;94477.91;;;9.49;48.96
33191;BME280;19554;42.652;23.364;2023-02-23T01:41:37;94483.75;;;9.51;48.88
33191;BME280;19554;42.652;23.364;2023-02-23T01:46:53;94480.06;;;9.47;48.89
33191;BME280;19554;42.652;23.364;2023-02-23T01:49:25;94482.47;;;9.43;48.86
33191;BME280;19554;42.652;23.364;2023-02-23T01:51:59;94476.94;;;9.40;48.84
33191;BME280;19554;42.652;23.364;2023-02-23T01:54:29;94473.78;;;9.38;48.88
33191;BME280;19554;42.652;23.364;2023-02-23T01:56:59;94479.13;;;9.33;49.18
33191;BME280;19554;42.652;23.364;2023-02-23T01:59:47;94468.47;;;9.33;48.98
33191;BME280;19554;42.652;23.364;2023-02-23T02:02:15;94471.72;;;9.30;49.22
33191;BME280;19554;42.652;23.364;2023-02-23T02:04:42;94473.88;;;9.28;49.30
33191;BME280;19554;42.652;23.364;2023-02-23T02:07:22;94468.31;;;9.24;49.45
33191;BME280;19554;42.652;23.364;2023-02-23T02:09:52;94459.69;;;9.08;49.60
33191;BME280;19554;42.652;23.364;2023-02-23T02:12:50;94466.66;;;9.04;49.95
33191;BME280;19554;42.652;23.364;2023-02-23T02:15:16;94470.88;;;9.05;50.07
33191;BME280;19554;42.652;23.364;2023-02-23T02:18:01;94404.25;;;8.57;50.32
33191;BME280;19554;42.652;23.364;2023-02-23T02:26:29;94470.03;;;8.86;50.85
33191;BME280;19554;42.652;23.364;2023-02-23T02:53:04;94472.78;;;8.75;51.02
33191;BME280;19554;42.652;23.364;2023-02-23T02:55:32;94474.34;;;8.76;51.01
33191;BME280;19554;42.652;23.364;2023-02-23T02:58:01;94473.81;;;8.74;50.92
33191;BME280;19554;42.652;23.364;2023-02-23T03:00:41;94471.13;;;8.80;50.81
33191;BME280;19554;42.652;23.364;2023-02-23T03:03:34;94465.03;;;8.79;50.62
33191;BME280;19554;42.652;23.364;2023-02-23T03:06:21;94469.03;;;8.76;50.79
33191;BME280;19554;42.652;23.364;2023-02-23T03:12:18;94459.81;;;8.64;50.70
33191;BME280;19554;42.652;23.364;2023-02-23T03:15:50;94476.53;;;8.69;50.65
33191;BME280;19554;42.652;23.364;2023-02-23T03:27:50;94487.31;;;8.49;51.74
33191;BME280;19554;42.652;23.364;2023-02-23T03:31:01;94470.34;;;8.45;52.12
33191;BME280;19554;42.652;23.364;2023-02-23T03:34:02;94484.13;;;8.47;52.35
33191;BME280;19554;42.652;23.364;2023-02-23T03:36:57;94407.63;;;7.94;52.11
33191;BME280;19554;42.652;23.364;2023-02-23T03:39:52;94488.44;;;8.43;52.06
33191;BME280;19554;42.652;23.364;2023-02-23T03:42:38;94493.19;;;8.46;52.13
33191;BME280;19554;42.652;23.364;2023-02-23T03:45:25;94478.88;;;8.42;52.03
33191;BME280;19554;42.652;23.364;2023-02-23T03:48:12;94483.09;;;8.43;52.28
33191;BME280;19554;42.652;23.364;2023-02-23T03:51:01;94494.28;;;8.45;52.36
33191;BME280;19554;42.652;23.364;2023-02-23T03:53:51;94499.31;;;8.46;52.42
33191;BME280;19554;42.652;23.364;2023-02-23T03:56:38;94499.06;;;8.43;52.19
33191;BME280;19554;42.652;23.364;2023-02-23T03:59:27;94501.19;;;8.46;52.02
33191;BME280;19554;42.652;23.364;2023-02-23T04:02:15;94497.97;;;8.49;51.72
33191;BME280;19554;42.652;23.364;2023-02-23T04:05:05;94503.03;;;8.45;51.39
33191;BME280;19554;42.652;23.364;2023-02-23T04:07:51;94489.50;;;8.37;51.62
33191;BME280;19554;42.652;23.364;2023-02-23T04:10:43;94501.22;;;8.36;52.89
33191;BME280;19554;42.652;23.364;2023-02-23T04:13:29;94502.34;;;8.24;52.18
33191;BME280;19554;42.652;23.364;2023-02-23T04:16:04;94502.66;;;8.13;52.44
33191;BME280;19554;42.652;23.364;2023-02-23T04:18:36;94507.19;;;8.12;52.83
33191;BME280;19554;42.652;23.364;2023-02-23T04:21:02;94505.63;;;8.06;53.05
33191;BME280;19554;42.652;23.364;2023-02-23T04:23:28;94503.81;;;7.96;53.08
33191;BME280;19554;42.652;23.364;2023-02-23T04:25:54;94501.97;;;7.97;52.97
33191;BME280;19554;42.652;23.364;2023-02-23T04:28:21;94498.22;;;7.98;52.95
33191;BME280;19554;42.652;23.364;2023-02-23T04:30:47;94444.25;;;7.53;53.14
33191;BME280;19554;42.652;23.364;2023-02-23T04:33:13;94454.31;;;7.56;53.40
33191;BME280;19554;42.652;23.364;2023-02-23T04:35:39;94511.06;;;7.80;52.94
33191;BME280;19554;42.652;23.364;2023-02-23T04:38:05;94415.97;;;7.12;53.40
33191;BME280;19554;42.652;23.364;2023-02-23T04:40:31;94497.88;;;7.60;53.35
33191;BME280;19554;42.652;23.364;2023-02-23T04:42:56;94515.38;;;7.61;53.40
33191;BME280;19554;42.652;23.364;2023-02-23T04:45:22;94513.50;;;7.62;53.71
33191;BME280;19554;42.652;23.364;2023-02-23T04:47:48;94497.88;;;7.55;54.23
33191;BME280;19554;42.652;23.364;2023-02-23T04:50:14;94487.28;;;7.50;54.28
33191;BME280;19554;42.652;23.364;2023-02-23T04:52:40;94507.13;;;7.68;54.30
33191;BME280;19554;42.652;23.364;2023-02-23T04:55:06;94489.09;;;7.54;54.53
33191;BME280;19554;42.652;23.364;2023-02-23T04:57:33;94514.56;;;7.66;54.10
33191;BME280;19554;42.652;23.364;2023-02-23T04:59:58;94515.91;;;7.58;54.38
33191;BME280;19554;42.652;23.364;2023-02-23T05:02:24;94504.75;;;7.61;54.27
33191;BME280;19554;42.652;23.364;2023-02-23T05:04:50;94512.75;;;7.56;54.60
33191;BME280;19554;42.652;23.364;2023-02-23T05:07:15;94513.28;;;7.53;54.50
33191;BME280;19554;42.652;23.364;2023-02-23T05:09:41;94512.25;;;7.49;54.25
33191;BME280;19554;42.652;23.364;2023-02-23T05:12:07;94516.47;;;7.50;55.02
33191;BME280;19554;42.652;23.364;2023-02-23T05:14:33;94509.06;;;7.47;55.45
33191;BME280;19554;42.652;23.364;2023-02-23T05:16:59;94515.66;;;7.54;55.81
33191;BME280;19554;42.652;23.364;2023-02-23T05:19:24;94393.25;;;6.81;55.72
33191;BME280;19554;42.652;23.364;2023-02-23T05:21:50;94517.22;;;7.66;55.70
33191;BME280;19554;42.652;23.364;2023-02-23T05:24:16;94526.00;;;7.66;55.43
33191;BME280;19554;42.652;23.364;2023-02-23T05:26:42;94525.72;;;7.68;55.31
33191;BME280;19554;42.652;23.364;2023-02-23T05:29:08;94535.03;;;7.70;55.13
33191;BME280;19554;42.652;23.364;2023-02-23T05:31:33;94528.09;;;7.79;54.96
33191;BME280;19554;42.652;23.364;2023-02-23T05:33:59;94520.09;;;7.84;54.58
33191;BME280;19554;42.652;23.364;2023-02-23T05:36:24;94533.81;;;8.07;54.33
33191;BME280;19554;42.652;23.364;2023-02-23T05:38:50;94525.78;;;8.17;53.78
33191;BME280;19554;42.652;23.364;2023-02-23T05:41:18;94534.25;;;8.24;53.37
33191;BME280;19554;42.652;23.364;2023-02-23T05:43:44;94530.78;;;8.29;53.13
33191;BME280;19554;42.652;23.364;2023-02-23T05:46:20;94502.16;;;8.11;52.82
33191;BME280;19554;42.652;23.364;2023-02-23T05:48:45;94542.16;;;8.40;52.95
33191;BME280;19554;42.652;23.364;2023-02-23T05:51:13;94544.75;;;8.50;52.81
33191;BME280;19554;42.652;23.364;2023-02-23T05:53:40;94534.66;;;8.52;52.79
33191;BME280;19554;42.652;23.364;2023-02-23T05:56:07;94549.72;;;8.67;52.24
33191;BME280;19554;42.652;23.364;2023-02-23T05:58:33;94551.00;;;8.74;51.90
33191;BME280;19554;42.652;23.364;2023-02-23T06:00:59;94556.75;;;8.87;51.59
33191;BME280;19554;42.652;23.364;2023-02-23T06:03:25;94556.13;;;9.00;51.48
33191;BME280;19554;42.652;23.364;2023-02-23T06:05:52;94557.56;;;9.21;50.86
33191;BME280;19554;42.652;23.364;2023-02-23T06:08:18;94553.16;;;9.36;50.18
33191;BME280;19554;42.652;23.364;2023-02-23T06:10:44;94557.00;;;9.24;50.62
33191;BME280;19554;42.652;23.364;2023-02-23T06:13:09;94561.31;;;9.15;50.48
33191;BME280;19554;42.652;23.364;2023-02-23T06:15:35;94556.22;;;8.90;50.76
33191;BME280;19554;42.652;23.364;2023-02-23T06:18:01;94458.13;;;8.34;50.71
33191;BME280;19554;42.652;23.364;2023-02-23T06:20:27;94573.22;;;8.94;51.25
33191;BME280;19554;42.652;23.364;2023-02-23T06:22:52;94560.91;;;9.03;51.08
33191;BME280;19554;42.652;23.364;2023-02-23T06:25:17;94566.53;;;9.31;50.37
33191;BME280;19554;42.652;23.364;2023-02-23T06:27:43;94566.56;;;9.55;50.01
33191;BME280;19554;42.652;23.364;2023-02-23T06:30:10;94467.09;;;9.11;49.68
33191;BME280;19554;42.652;23.364;2023-02-23T06:32:36;94567.84;;;10.10;48.98
33191;BME280;19554;42.652;23.364;2023-02-23T06:35:03;94569.94;;;10.37;48.55
33191;BME280;19554;42.652;23.364;2023-02-23T06:37:30;94572.59;;;10.56;48.36
33191;BME280;19554;42.652;23.364;2023-02-23T06:39:55;94577.91;;;10.80;47.70
33191;BME280;19554;42.652;23.364;2023-02-23T06:42:21;94571.75;;;10.99;47.37
33191;BME280;19554;42.652;23.364;2023-02-23T06:44:46;94577.13;;;11.12;47.50
33191;BME280;19554;42.652;23.364;2023-02-23T06:47:11;94576.41;;;11.26;47.35
33191;BME280;19554;42.652;23.364;2023-02-23T06:49:37;94564.53;;;11.32;47.42
33191;BME280;19554;42.652;23.364;2023-02-23T06:52:05;94585.72;;;11.75;46.23
33191;BME280;19554;42.652;23.364;2023-02-23T06:54:30;94582.31;;;12.02;44.96
33191;BME280;19554;42.652;23.364;2023-02-23T06:56:58;94579.53;;;12.07;44.88
33191;BME280;19554;42.652;23.364;2023-02-23T06:59:23;94585.69;;;12.07;44.74
33191;BME280;19554;42.652;23.364;2023-02-23T07:01:49;94558.53;;;12.14;43.94
33191;BME280;19554;42.652;23.364;2023-02-23T07:04:14;94575.03;;;12.44;43.39
33191;BME280;19554;42.652;23.364;2023-02-23T07:06:39;94581.91;;;12.36;43.62
33191;BME280;19554;42.652;23.364;2023-02-23T07:09:05;94572.38;;;12.30;43.42
33191;BME280;19554;42.652;23.364;2023-02-23T07:11:30;94585.19;;;12.05;44.41
33191;BME280;19554;42.652;23.364;2023-02-23T07:13:57;94505.41;;;11.80;44.15
33191;BME280;19554;42.652;23.364;2023-02-23T07:16:23;94574.94;;;12.49;43.64
33191;BME280;19554;42.652;23.364;2023-02-23T07:18:48;94574.94;;;12.49;44.14
33191;BME280;19554;42.652;23.364;2023-02-23T07:21:14;94574.94;;;12.49;43.59
33191;BME280;19554;42.652;23.364;2023-02-23T07:23:39;94576.38;;;12.19;43.98
33191;BME280;19554;42.652;23.364;2023-02-23T07:26:04;94554.97;;;11.91;44.31
33191;BME280;19554;42.652;23.364;2023-02-23T07:28:30;94583.41;;;12.15;45.08
33191;BME280;19554;42.652;23.364;2023-02-23T07:30:57;94580.72;;;12.01;44.96
33191;BME280;19554;42.652;23.364;2023-02-23T07:33:23;94578.25;;;11.91;45.34
33191;BME280;19554;42.652;23.364;2023-02-23T07:35:49;94577.78;;;11.70;45.80
33191;BME280;19554;42.652;23.364;2023-02-23T07:38:15;94580.25;;;11.52;46.47
33191;BME280;19554;42.652;23.364;2023-02-23T07:40:40;94578.63;;;11.51;46.79
33191;BME280;19554;42.652;23.364;2023-02-23T07:43:06;94568.38;;;11.72;46.31
33191;BME280;19554;42.652;23.364;2023-02-23T07:45:32;94570.63;;;12.12;45.60
33191;BME280;19554;42.652;23.364;2023-02-23T07:47:57;94557.75;;;12.27;44.97
33191;BME280;19554;42.652;23.364;2023-02-23T07:50:24;94557.72;;;12.41;44.75
33191;BME280;19554;42.652;23.364;2023-02-23T07:52:51;94563.66;;;12.52;44.78
33191;BME280;19554;42.652;23.364;2023-02-23T07:55:16;94561.63;;;12.57;44.27
33191;BME280;19554;42.652;23.364;2023-02-23T07:57:42;94545.94;;;12.65;44.39
33191;BME280;19554;42.652;23.364;2023-02-23T08:00:08;94554.59;;;12.98;43.78
33191;BME280;19554;42.652;23.364;2023-02-23T08:02:33;94559.53;;;13.04;43.90
33191;BME280;19554;42.652;23.364;2023-02-23T08:04:59;94556.09;;;13.13;43.35
33191;BME280;19554;42.652;23.364;2023-02-23T08:07:24;94551.31;;;13.23;43.20
33191;BME280;19554;42.652;23.364;2023-02-23T08:09:51;94557.25;;;13.34;43.17
33191;BME280;19554;42.652;23.364;2023-02-23T08:12:16;94498.16;;;13.17;43.04
33191;BME280;19554;42.652;23.364;2023-02-23T08:14:42;94553.13;;;13.59;42.99
33191;BME280;19554;42.652;23.364;2023-02-23T08:17:08;94532.28;;;13.56;42.59
33191;BME280;19554;42.652;23.364;2023-02-23T08:19:34;94551.88;;;13.96;42.19
33191;BME280;19554;42.652;23.364;2023-02-23T08:22:00;94545.91;;;13.99;41.63
33191;BME280;19554;42.652;23.364;2023-02-23T08:24:25;94498.94;;;13.71;41.26
33191;BME280;19554;42.652;23.364;2023-02-23T08:26:53;94551.94;;;14.14;41.75
33191;BME280;19554;42.652;23.364;2023-02-23T08:29:18;94554.41;;;14.02;41.31
33191;BME280;19554;42.652;23.364;2023-02-23T08:31:44;94556.03;;;14.03;41.52
33191;BME280;19554;42.652;23.364;2023-02-23T08:34:10;94554.72;;;13.91;42.00
33191;BME280;19554;42.652;23.364;2023-02-23T08:36:35;94529.25;;;13.80;41.79
33191;BME280;19554;42.652;23.364;2023-02-23T08:39:01;94533.78;;;13.71;42.04
33191;BME280;19554;42.652;23.364;2023-02-23T08:41:26;94539.22;;;13.57;42.07
33191;BME280;19554;42.652;23.364;2023-02-23T08:43:52;94544.53;;;13.71;42.23
33191;BME280;19554;42.652;23.364;2023-02-23T08:46:18;94505.38;;;13.39;42.94
33191;BME280;19554;42.652;23.364;2023-02-23T08:48:45;94537.72;;;13.65;42.73
33191;BME280;19554;42.652;23.364;2023-02-23T08:51:11;94544.25;;;13.81;42.12
33191;BME280;19554;42.652;23.364;2023-02-23T08:53:38;94551.38;;;13.94;42.20
33191;BME280;19554;42.652;23.364;2023-02-23T08:56:06;94546.88;;;13.72;42.46
33191;BME280;19554;42.652;23.364;2023-02-23T08:58:32;94551.53;;;13.89;42.51
33191;BME280;19554;42.652;23.364;2023-02-23T09:00:58;94541.38;;;14.09;41.93
33191;BME280;19554;42.652;23.364;2023-02-23T09:03:25;94541.69;;;14.16;41.48
33191;BME280;19554;42.652;23.364;2023-02-23T09:05:53;94548.84;;;14.29;41.34
33191;BME280;19554;42.652;23.364;2023-02-23T09:08:18;94543.31;;;14.26;41.38
33191;BME280;19554;42.652;23.364;2023-02-23T09:10:44;94542.31;;;14.21;41.47
33191;BME280;19554;42.652;23.364;2023-02-23T09:13:10;94549.50;;;14.43;41.33
33191;BME280;19554;42.652;23.364;2023-02-23T09:15:37;94544.16;;;14.52;40.96
33191;BME280;19554;42.652;23.364;2023-02-23T09:18:04;94522.75;;;14.21;40.96
33191;BME280;19554;42.652;23.364;2023-02-23T09:20:30;94547.28;;;14.45;41.00
33191;BME280;19554;42.652;23.364;2023-02-23T09:22:55;94542.63;;;14.60;40.83
33191;BME280;19554;42.652;23.364;2023-02-23T09:25:21;94522.72;;;14.61;40.70
33191;BME280;19554;42.652;23.364;2023-02-23T09:27:48;94528.09;;;14.78;40.49
33191;BME280;19554;42.652;23.364;2023-02-23T09:30:15;94533.00;;;15.02;40.00
33191;BME280;19554;42.652;23.364;2023-02-23T09:32:49;94540.25;;;15.10;39.68
33191;BME280;19554;42.652;23.364;2023-02-23T09:35:16;94531.56;;;15.05;39.80
33191;BME280;19554;42.652;23.364;2023-02-23T09:37:53;94540.09;;;15.07;39.59
33191;BME280;19554;42.652;23.364;2023-02-23T09:40:22;94538.69;;;15.18;39.42
33191;BME280;19554;42.652;23.364;2023-02-23T09:45:34;94542.97;;;15.02;39.78
33191;BME280;19554;42.652;23.364;2023-02-23T09:48:19;94537.72;;;14.97;40.02
33191;BME280;19554;42.652;23.364;2023-02-23T09:50:49;94536.63;;;15.15;39.27
33191;BME280;19554;42.652;23.364;2023-02-23T09:56:09;94536.00;;;15.18;39.35
33191;BME280;19554;42.652;23.364;2023-02-23T09:58:37;94517.97;;;15.10;39.01
33191;BME280;19554;42.652;23.364;2023-02-23T10:09:41;94523.28;;;15.45;38.82
33191;BME280;19554;42.652;23.364;2023-02-23T10:20:43;94511.00;;;15.91;37.22
33191;BME280;19554;42.652;23.364;2023-02-23T10:23:14;94429.00;;;15.41;37.42
33191;BME280;19554;42.652;23.364;2023-02-23T10:25:42;94506.78;;;15.72;37.98
33191;BME280;19554;42.652;23.364;2023-02-23T10:28:15;94509.66;;;15.67;38.36
33191;BME280;19554;42.652;23.364;2023-02-23T10:30:44;94504.19;;;15.84;38.31
33191;BME280;19554;42.652;23.364;2023-02-23T10:33:17;94492.97;;;15.82;37.83
33191;BME280;19554;42.652;23.364;2023-02-23T10:35:45;94496.69;;;15.99;37.16
33191;BME280;19554;42.652;23.364;2023-02-23T10:38:14;94488.84;;;15.85;37.49
33191;BME280;19554;42.652;23.364;2023-02-23T10:40:40;94480.97;;;15.80;37.96
33191;BME280;19554;42.652;23.364;2023-02-23T10:43:10;94483.00;;;15.83;37.77
33191;BME280;19554;42.652;23.364;2023-02-23T10:45:46;94483.78;;;15.83;37.54
33191;BME280;19554;42.652;23.364;2023-02-23T10:48:17;94475.56;;;15.80;37.68
33191;BME280;19554;42.652;23.364;2023-02-23T10:50:46;94461.69;;;15.52;37.97
33191;BME280;19554;42.652;23.364;2023-02-23T10:53:23;94476.72;;;15.70;38.05
33191;BME280;19554;42.652;23.364;2023-02-23T10:56:06;94480.81;;;15.76;37.65
33191;BME280;19554;42.652;23.364;2023-02-23T10:58:43;94417.16;;;15.33;37.61
33191;BME280;19554;42.652;23.364;2023-02-23T11:01:11;94471.03;;;15.63;37.78
33191;BME280;19554;42.652;23.364;2023-02-23T11:03:48;94465.63;;;15.63;37.85
33191;BME280;19554;42.652;23.364;2023-02-23T11:08:55;94467.53;;;15.71;38.24
33191;BME280;19554;42.652;23.364;2023-02-23T11:11:26;94431.28;;;15.69;37.51
33191;BME280;19554;42.652;23.364;2023-02-23T11:13:53;94445.47;;;15.86;37.29
33191;BME280;19554;42.652;23.364;2023-02-23T11:16:24;94446.75;;;15.80;37.11
33191;BME280;19554;42.652;23.364;2023-02-23T11:18:56;94446.56;;;15.85;36.82
33191;BME280;19554;42.652;23.364;2023-02-23T11:21:31;94455.75;;;15.84;37.41
33191;BME280;19554;42.652;23.364;2023-02-23T11:24:21;94436.00;;;15.80;38.14
33191;BME280;19554;42.652;23.364;2023-02-23T11:26:51;94436.44;;;15.82;37.44
33191;BME280;19554;42.652;23.364;2023-02-23T11:29:40;94438.19;;;15.87;37.16
33191;BME280;19554;42.652;23.364;2023-02-23T11:32:08;94432.28;;;15.94;37.51
33191;BME280;19554;42.652;23.364;2023-02-23T11:34:37;94426.44;;;15.92;37.13
33191;BME280;19554;42.652;23.364;2023-02-23T11:40:02;94424.16;;;16.02;37.34
33191;BME280;19554;42.652;23.364;2023-02-23T11:42:30;94428.38;;;15.82;37.39
33191;BME280;19554;42.652;23.364;2023-02-23T11:45:14;94431.06;;;15.82;37.11
33191;BME280;19554;42.652;23.364;2023-02-23T11:47:44;94383.06;;;15.55;36.98
33191;BME280;19554;42.652;23.364;2023-02-23T11:50:31;94418.50;;;15.95;36.57
33191;BME280;19554;42.652;23.364;2023-02-23T11:53:05;94418.63;;;15.99;36.19
33191;BME280;19554;42.652;23.364;2023-02-23T11:55:36;94416.13;;;15.94;37.03
33191;BME280;19554;42.652;23.364;2023-02-23T11:58:18;94402.09;;;16.09;36.53
33191;BME280;19554;42.652;23.364;2023-02-23T12:01:00;94419.16;;;16.13;36.79
33191;BME280;19554;42.652;23.364;2023-02-23T12:03:29;94395.78;;;16.05;36.57
33191;BME280;19554;42.652;23.364;2023-02-23T12:05:57;94406.19;;;16.15;36.77
33191;BME280;19554;42.652;23.364;2023-02-23T12:08:45;94391.59;;;16.16;36.09
33191;BME280;19554;42.652;23.364;2023-02-23T12:11:23;94391.72;;;16.20;35.95
33191;BME280;19554;42.652;23.364;2023-02-23T12:19:59;94400.88;;;16.27;36.83
33191;BME280;19554;42.652;23.364;2023-02-23T12:22:19;94395.41;;;16.15;37.05
33191;BME280;19554;42.652;23.364;2023-02-23T12:24:56;94398.28;;;16.10;37.04
33191;BME280;19554;42.652;23.364;2023-02-23T12:27:52;94405.63;;;16.01;37.36
33191;BME280;19554;42.652;23.364;2023-02-23T12:30:19;94403.13;;;15.96;37.65
33191;BME280;19554;42.652;23.364;2023-02-23T12:32:55;94398.88;;;15.95;37.23
33191;BME280;19554;42.652;23.364;2023-02-23T12:35:41;94388.88;;;15.95;37.74
33191;BME280;19554;42.652;23.364;2023-02-23T12:38:25;94394.22;;;16.04;38.16
33191;BME280;19554;42.652;23.364;2023-02-23T12:41:13;94391.31;;;16.09;37.82
33191;BME280;19554;42.652;23.364;2023-02-23T12:43:54;94399.88;;;16.11;37.40
33191;BME280;19554;42.652;23.364;2023-02-23T12:46:24;94389.75;;;16.08;37.41
33191;BME280;19554;42.652;23.364;2023-02-23T12:49:12;94395.78;;;16.05;37.25
33191;BME280;19554;42.652;23.364;2023-02-23T12:54:16;94388.09;;;15.95;37.70
33191;BME280;19554;42.652;23.364;2023-02-23T13:13:00;94375.44;;;16.16;36.93
33191;BME280;19554;42.652;23.364;2023-02-23T13:15:46;94375.44;;;16.16;36.88
33191;BME280;19554;42.652;23.364;2023-02-23T13:18:25;94382.13;;;16.10;37.31
33191;BME280;19554;42.652;23.364;2023-02-23T13:21:26;94381.34;;;16.09;37.16
33191;BME280;19554;42.652;23.364;2023-02-23T13:24:35;94380.16;;;16.19;36.71
33191;BME280;19554;42.652;23.364;2023-02-23T13:30:09;94370.56;;;16.30;36.61
33191;BME280;19554;42.652;23.364;2023-02-23T13:32:35;94373.19;;;16.39;36.68
33191;BME280;19554;42.652;23.364;2023-02-23T13:35:23;94365.72;;;16.45;36.42
33191;BME280;19554;42.652;23.364;2023-02-23T13:37:52;94383.56;;;16.49;36.44
33191;BME280;19554;42.652;23.364;2023-02-23T13:41:06;94375.84;;;16.48;36.39
33191;BME280;19554;42.652;23.364;2023-02-23T13:43:43;94356.91;;;16.35;36.52
33191;BME280;19554;42.652;23.364;2023-02-23T13:49:01;94371.09;;;16.45;36.31
33191;BME280;19554;42.652;23.364;2023-02-23T13:51:43;94297.03;;;15.97;36.33
33191;BME280;19554;42.652;23.364;2023-02-23T13:56:47;94367.56;;;16.32;36.11
33191;BME280;19554;42.652;23.364;2023-02-23T13:59:19;94378.59;;;16.18;36.21
33191;BME280;19554;42.652;23.364;2023-02-23T14:01:48;94374.78;;;16.19;36.30
33191;BME280;19554;42.652;23.364;2023-02-23T14:04:20;94374.13;;;16.22;36.13
33191;BME280;19554;42.652;23.364;2023-02-23T14:06:52;94368.75;;;16.22;36.10
33191;BME280;19554;42.652;23.364;2023-02-23T14:09:25;94372.81;;;16.28;36.23
33191;BME280;19554;42.652;23.364;2023-02-23T14:12:16;94374.06;;;16.31;36.17
33191;BME280;19554;42.652;23.364;2023-02-23T14:14:47;94359.09;;;16.21;36.00
33191;BME280;19554;42.652;23.364;2023-02-23T14:22:28;94370.00;;;16.04;37.02
33191;BME280;19554;42.652;23.364;2023-02-23T14:28:13;94369.25;;;15.95;37.73
33191;BME280;19554;42.652;23.364;2023-02-23T14:41:23;94388.56;;;15.20;40.86
33191;BME280;19554;42.652;23.364;2023-02-23T14:44:14;94365.91;;;14.91;41.25
33191;BME280;19554;42.652;23.364;2023-02-23T14:47:10;94373.19;;;14.82;41.37
33191;BME280;19554;42.652;23.364;2023-02-23T14:49:41;94395.91;;;14.93;41.64
33191;BME280;19554;42.652;23.364;2023-02-23T14:52:13;94397.22;;;14.87;41.71
33191;BME280;19554;42.652;23.364;2023-02-23T14:54:44;94389.34;;;14.65;42.08
33191;BME280;19554;42.652;23.364;2023-02-23T14:59:45;94386.97;;;14.55;42.16
33191;BME280;19554;42.652;23.364;2023-02-23T15:02:24;94398.84;;;14.54;42.59
33191;BME280;19554;42.652;23.364;2023-02-23T15:04:50;94405.44;;;14.48;42.67
33191;BME280;19554;42.652;23.364;2023-02-23T15:09:58;94349.66;;;13.84;43.05
33191;BME280;19554;42.652;23.364;2023-02-23T15:12:27;94419.50;;;14.27;42.99
33191;BME280;19554;42.652;23.364;2023-02-23T15:15:00;94361.47;;;13.74;43.23
33191;BME280;19554;42.652;23.364;2023-02-23T15:17:27;94442.22;;;14.12;43.31
33191;BME280;19554;42.652;23.364;2023-02-23T15:20:02;94406.66;;;13.89;43.47
33191;BME280;19554;42.652;23.364;2023-02-23T15:22:34;94425.72;;;13.79;43.77
33191;BME280;19554;42.652;23.364;2023-02-23T15:25:01;94447.31;;;13.74;44.11
33191;BME280;19554;42.652;23.364;2023-02-23T15:27:37;94440.84;;;13.66;44.34